Time;durP1;ratioP1;P1;durP2;ratioP2;P2;SDS_P1;SDS_P2;PMS_P1;PMS_P2;Temp;Humidity;BMP_temperature;BMP_pressure;BME280_temperature;BME280_humidity;BME280_pressure;Samples;Min_cycle;Max_cycle;Signal;HPM_P1;HPM_P2
2023/05/06 00:02:26;;;;;;;25.27;20.55;;;11.80;99.90;;;;;;6218374;22;20833;-93
2023/05/06 00:04:52;;;;;;;27.90;21.83;;;11.50;99.90;;;;;;6218048;22;20423;-92
2023/05/06 00:07:18;;;;;;;183.02;21.58;;;11.60;99.90;;;;;;6218770;22;20365;-92
2023/05/06 00:09:43;;;;;;;26.00;20.90;;;11.90;99.90;;;;;;6218350;22;20366;-95
2023/05/06 00:12:09;;;;;;;29.63;22.05;;;11.40;99.90;;;;;;6218732;22;20842;-93
2023/05/06 00:14:35;;;;;;;48.33;20.02;;;11.50;99.90;;;;;;6218496;22;20368;-93
2023/05/06 00:17:00;;;;;;;45.53;18.37;;;11.90;99.90;;;;;;6217973;22;20388;-94
2023/05/06 00:19:26;;;;;;;220.80;22.37;;;11.50;99.90;;;;;;6218710;22;20447;-96
2023/05/06 00:21:52;;;;;;;469.88;42.97;;;11.30;99.90;;;;;;6217973;22;20372;-94
2023/05/06 00:24:17;;;;;;;46.27;25.33;;;11.50;99.90;;;;;;6218559;22;20534;-93
2023/05/06 00:26:43;;;;;;;31.17;24.00;;;11.70;99.90;;;;;;6217736;22;20890;-94
2023/05/06 00:29:09;;;;;;;37.92;18.40;;;11.30;99.90;;;;;;6218332;22;20360;-92
2023/05/06 00:31:34;;;;;;;26.53;14.90;;;11.40;99.90;;;;;;6218595;22;20448;-93
2023/05/06 00:34:00;;;;;;;78.88;23.67;;;11.40;99.90;;;;;;6218349;22;20371;-93
2023/05/06 00:36:26;;;;;;;28.35;20.80;;;11.30;99.90;;;;;;6218632;22;20376;-92
2023/05/06 00:38:52;;;;;;;40.45;24.05;;;11.30;99.90;;;;;;6217757;22;20364;-92
2023/05/06 00:41:17;;;;;;;55.70;27.20;;;11.40;99.90;;;;;;6218245;22;20375;-92
2023/05/06 00:43:43;;;;;;;67.25;29.73;;;10.90;99.90;;;;;;6217419;22;20420;-92
2023/05/06 00:46:10;;;;;;;19.48;17.38;;;12.00;99.90;;;;;;6218021;22;20399;-94
2023/05/06 00:48:36;;;;;;;25.67;19.13;;;11.40;99.90;;;;;;6218074;22;20453;-93
2023/05/06 00:51:02;;;;;;;19.20;17.20;;;11.40;99.90;;;;;;6218214;22;21123;-93
2023/05/06 00:53:27;;;;;;;21.43;18.93;;;11.00;99.90;;;;;;6218229;22;20820;-93
2023/05/06 00:55:53;;;;;;;35.75;22.13;;;11.30;99.90;;;;;;6218026;22;20441;-94
2023/05/06 00:58:19;;;;;;;20.95;18.60;;;11.30;99.90;;;;;;6218115;22;20364;-92
2023/05/06 01:00:45;;;;;;;21.08;18.30;;;11.30;99.90;;;;;;6217426;22;20369;-93
2023/05/06 01:03:10;;;;;;;23.40;19.43;;;12.00;99.90;;;;;;6217921;22;20420;-94
2023/05/06 01:06:06;;;;;;;31.77;25.17;;;11.60;99.90;;;;;;6217792;22;20694;-92
2023/05/06 01:08:38;;;;;;;29.77;22.60;;;10.90;99.90;;;;;;6217868;22;20455;-92
2023/05/06 01:11:17;;;;;;;32.22;22.48;;;11.40;99.90;;;;;;6217960;22;20386;-92
2023/05/06 01:14:03;;;;;;;32.90;24.03;;;11.40;99.90;;;;;;6217366;22;20379;-93
2023/05/06 01:16:30;;;;;;;21.48;17.30;;;11.20;99.90;;;;;;6242986;22;21022;-92
2023/05/06 01:18:59;;;;;;;36.08;26.40;;;11.40;99.90;;;;;;6217560;22;20368;-92
2023/05/06 01:21:33;;;;;;;37.15;25.83;;;11.50;99.90;;;;;;6217909;22;20375;-92
2023/05/06 01:23:59;;;;;;;35.67;26.38;;;11.50;99.90;;;;;;6217951;22;20392;-92
2023/05/06 01:26:26;;;;;;;46.80;32.17;;;11.10;99.90;;;;;;6217468;22;20391;-92
2023/05/06 01:28:52;;;;;;;45.97;30.90;;;11.20;99.90;;;;;;6218009;22;20372;-91
2023/05/06 01:31:29;;;;;;;44.95;30.17;;;11.50;99.90;;;;;;6216834;22;20371;-93
2023/05/06 01:34:03;;;;;;;40.65;29.27;;;11.50;99.90;;;;;;6217781;22;20380;-93
2023/05/06 01:36:52;;;;;;;46.22;32.97;;;11.30;99.90;;;;;;6217608;22;20434;-92
2023/05/06 01:39:31;;;;;;;45.17;31.65;;;11.70;99.90;;;;;;6198194;22;20861;-92
2023/05/06 01:41:59;;;;;;;51.38;33.10;;;11.70;99.90;;;;;;6217765;22;20375;-93
2023/05/06 01:44:27;;;;;;;44.83;31.52;;;11.50;99.90;;;;;;6216976;22;20415;-93
2023/05/06 01:46:54;;;;;;;45.70;31.17;;;11.70;99.90;;;;;;6217469;22;20448;-92
2023/05/06 01:49:22;;;;;;;41.58;30.25;;;11.60;99.90;;;;;;6216949;22;20372;-93
2023/05/06 01:51:50;;;;;;;45.08;30.85;;;11.80;99.90;;;;;;6217891;22;20720;-92
2023/05/06 01:54:17;;;;;;;45.63;31.70;;;11.50;99.90;;;;;;6217239;22;20368;-93
2023/05/06 01:56:42;;;;;;;51.58;33.38;;;11.50;99.90;;;;;;6216691;22;20396;-93
2023/05/06 01:59:08;;;;;;;52.90;32.65;;;11.30;99.90;;;;;;6217733;22;20383;-92
2023/05/06 02:01:34;;;;;;;43.33;30.33;;;11.90;99.90;;;;;;6216785;22;20663;-95
2023/05/06 02:04:00;;;;;;;40.80;28.37;;;11.90;99.90;;;;;;6217651;22;20868;-93
2023/05/06 02:06:25;;;;;;;45.92;29.85;;;11.80;99.90;;;;;;6217049;22;20368;-93
2023/05/06 02:08:51;;;;;;;61.92;35.45;;;11.80;99.90;;;;;;6217413;22;20653;-93
2023/05/06 02:11:17;;;;;;;49.03;32.07;;;11.80;99.90;;;;;;6217386;22;21075;-92
2023/05/06 02:13:43;;;;;;;45.60;30.75;;;12.50;99.90;;;;;;6217002;22;20365;-91
2023/05/06 02:16:09;;;;;;;59.47;34.03;;;11.80;99.90;;;;;;6217745;22;20394;-91
2023/05/06 02:18:35;;;;;;;44.37;28.53;;;11.90;99.90;;;;;;6216841;22;20364;-93
2023/05/06 02:21:02;;;;;;;42.53;28.30;;;11.80;99.90;;;;;;6217169;22;20757;-92
2023/05/06 02:23:28;;;;;;;60.58;33.78;;;11.70;99.90;;;;;;6216972;22;20978;-93
2023/05/06 02:25:53;;;;;;;73.57;37.33;;;11.60;99.90;;;;;;6217413;22;20849;-94
2023/05/06 02:28:19;;;;;;;55.20;33.55;;;11.80;99.90;;;;;;6216726;22;20375;-91
2023/05/06 02:30:45;;;;;;;50.53;31.37;;;11.00;99.90;;;;;;6217668;22;20873;-94
2023/05/06 02:33:11;;;;;;;43.17;28.27;;;11.80;99.90;;;;;;6216668;22;20839;-92
2023/05/06 02:35:36;;;;;;;102.05;42.03;;;11.70;99.90;;;;;;6216808;22;20388;-92
2023/05/06 02:38:03;;;;;;;52.40;32.42;;;11.70;99.90;;;;;;6217483;22;20418;-91
2023/05/06 02:40:29;;;;;;;51.55;32.58;;;11.50;99.90;;;;;;6216688;22;20399;-92
2023/05/06 02:42:55;;;;;;;46.72;30.95;;;11.70;99.90;;;;;;6217784;22;20414;-93
2023/05/06 02:45:20;;;;;;;44.17;29.05;;;12.00;99.90;;;;;;6216693;22;20368;-92
2023/05/06 02:47:46;;;;;;;47.27;30.47;;;11.80;99.90;;;;;;6217078;22;20895;-92
2023/05/06 02:50:12;;;;;;;47.70;29.35;;;11.50;99.90;;;;;;6217116;22;20427;-92
2023/05/06 02:52:37;;;;;;;132.13;50.38;;;11.50;99.90;;;;;;6216780;22;20379;-93
2023/05/06 02:55:05;;;;;;;55.20;33.40;;;11.50;99.90;;;;;;6216994;22;20447;-95
2023/05/06 02:57:30;;;;;;;58.63;33.92;;;11.30;99.90;;;;;;6216099;22;20364;-92
2023/05/06 02:59:56;;;;;;;60.33;33.67;;;11.60;99.90;;;;;;6217044;22;20369;-93
2023/05/06 03:02:22;;;;;;;49.58;30.13;;;11.30;99.90;;;;;;6216145;22;20843;-92
2023/05/06 03:04:47;;;;;;;55.95;33.67;;;11.40;99.90;;;;;;6217072;22;20396;-92
2023/05/06 03:07:13;;;;;;;47.37;31.20;;;11.40;99.90;;;;;;6218953;22;20863;-93
2023/05/06 03:09:39;;;;;;;73.13;38.78;;;11.70;99.90;;;;;;6218936;22;20367;-93
2023/05/06 03:12:05;;;;;;;112.27;35.83;;;11.50;99.90;;;;;;6219574;22;20376;-92
2023/05/06 03:14:30;;;;;;;47.20;30.52;;;11.20;99.90;;;;;;6218547;22;20402;-92
2023/05/06 03:16:56;;;;;;;45.90;29.02;;;11.20;99.90;;;;;;6219007;22;20888;-93
2023/05/06 03:19:22;;;;;;;55.13;33.67;;;11.30;99.90;;;;;;6218624;22;20383;-92
2023/05/06 03:21:48;;;;;;;58.67;33.93;;;11.10;99.90;;;;;;6219467;22;20372;-92
2023/05/06 03:24:13;;;;;;;38.88;26.63;;;11.00;99.90;;;;;;6218023;22;20388;-92
2023/05/06 03:26:39;;;;;;;46.40;29.75;;;10.90;99.90;;;;;;6219134;22;20999;-93
2023/05/06 03:29:05;;;;;;;56.73;33.77;;;10.60;99.90;;;;;;6218779;22;20364;-95
2023/05/06 03:31:30;;;;;;;180.03;43.93;;;10.60;99.90;;;;;;6218335;22;20463;-92
2023/05/06 03:33:56;;;;;;;46.88;30.35;;;11.00;99.90;;;;;;6218795;22;20363;-92
2023/05/06 03:36:26;;;;;;;42.58;28.65;;;10.90;99.90;;;;;;6218051;22;20376;-92
2023/05/06 03:38:51;;;;;;;37.00;26.20;;;11.10;99.90;;;;;;6219095;22;20596;-91
2023/05/06 03:41:17;;;;;;;110.90;41.05;;;11.20;99.90;;;;;;6218204;22;20368;-92
2023/05/06 03:43:43;;;;;;;110.23;47.33;;;10.90;99.90;;;;;;6219046;22;20449;-93
2023/05/06 03:46:08;;;;;;;80.38;39.47;;;10.70;99.90;;;;;;6218361;22;20367;-94
2023/05/06 03:48:34;;;;;;;49.83;30.65;;;10.60;99.90;;;;;;6219104;22;20443;-92
2023/05/06 03:51:00;;;;;;;47.03;32.00;;;10.70;99.90;;;;;;6219078;22;20837;-92
2023/05/06 03:53:27;;;;;;;109.55;36.30;;;10.60;99.90;;;;;;6218206;22;20360;-92
2023/05/06 03:55:52;;;;;;;88.25;35.00;;;10.80;99.90;;;;;;6218643;22;20435;-92
2023/05/06 03:58:18;;;;;;;274.65;57.00;;;10.70;99.90;;;;;;6217846;22;20404;-93
2023/05/06 04:00:44;;;;;;;74.07;34.67;;;10.80;99.90;;;;;;6218396;22;20368;-93
2023/05/06 04:03:10;;;;;;;66.60;26.35;;;11.50;99.90;;;;;;6217997;22;20383;-94
2023/05/06 04:05:35;;;;;;;46.10;30.83;;;11.20;99.90;;;;;;6218823;22;20431;-92
2023/05/06 04:08:01;;;;;;;57.15;35.42;;;10.70;99.90;;;;;;6218073;22;20368;-92
2023/05/06 04:10:27;;;;;;;26.33;21.47;;;11.20;99.90;;;;;;6218591;22;20427;-95
2023/05/06 04:12:52;;;;;;;35.05;25.17;;;10.60;99.90;;;;;;6218661;22;20386;-92
2023/05/06 04:15:18;;;;;;;34.90;25.83;;;10.70;99.90;;;;;;6218219;22;20364;-92
2023/05/06 04:17:44;;;;;;;39.10;26.37;;;10.60;99.90;;;;;;6218867;22;20375;-92
2023/05/06 04:20:10;;;;;;;36.55;27.73;;;10.70;99.90;;;;;;6217253;22;20365;-92
2023/05/06 04:22:37;;;;;;;51.35;32.50;;;10.70;99.90;;;;;;6217048;22;20364;-93
2023/05/06 04:25:03;;;;;;;39.28;28.42;;;11.00;99.90;;;;;;6216928;22;20594;-93
2023/05/06 04:27:30;;;;;;;43.97;31.35;;;10.80;99.90;;;;;;6216956;22;20367;-93
2023/05/06 04:29:56;;;;;;;46.57;33.37;;;10.40;99.90;;;;;;6217558;22;20389;-94
2023/05/06 04:32:25;;;;;;;50.40;32.73;;;11.10;99.90;;;;;;6217595;22;20383;-93
2023/05/06 04:34:52;;;;;;;33.90;25.40;;;11.00;99.90;;;;;;6215810;22;20447;-93
2023/05/06 04:37:18;;;;;;;35.78;25.77;;;11.60;99.90;;;;;;6216602;22;20364;-93
2023/05/06 04:39:47;;;;;;;57.55;34.78;;;11.00;99.90;;;;;;6213465;22;20472;-94
2023/05/06 04:42:15;;;;;;;56.17;38.75;;;11.80;99.90;;;;;;6216105;22;20418;-95
2023/05/06 04:44:42;;;;;;;92.97;48.80;;;11.20;99.90;;;;;;6214242;22;20388;-94
2023/05/06 04:47:11;;;;;;;62.15;37.15;;;11.20;99.90;;;;;;6212150;22;20380;-94
2023/05/06 04:50:00;;;;;;;;;;;;;;;;;;;;;
2023/05/06 04:52:58;;;;;;;59.38;39.33;;;11.70;99.90;;;;;;6242304;22;20452;-95
2023/05/06 05:00:35;;;;;;;;;;;;;;;;;;;;;
2023/05/06 05:03:04;;;;;;;65.65;39.38;;;11.30;99.90;;;;;;6085466;23;20901;-94
2023/05/06 05:05:56;;;;;;;70.18;43.20;;;11.40;99.90;;;;;;6126331;23;20432;-93
2023/05/06 05:08:22;;;;;;;68.45;41.90;;;11.40;99.90;;;;;;6231567;22;20373;-94
2023/05/06 05:10:48;;;;;;;67.55;41.13;;;11.40;99.90;;;;;;6217216;22;20372;-94
2023/05/06 05:13:36;;;;;;;77.65;45.97;;;11.40;99.90;;;;;;6216513;22;20365;-93
2023/05/06 05:16:29;;;;;;;73.55;43.50;;;12.00;99.90;;;;;;6242362;22;20369;-94
2023/05/06 05:22:28;;;;;;;104.65;55.58;;;11.50;99.90;;;;;;6186257;22;20454;-94
2023/05/06 05:24:59;;;;;;;92.85;51.13;;;11.40;99.90;;;;;;6216961;22;20453;-94
2023/05/06 05:27:27;;;;;;;89.95;49.50;;;11.40;99.90;;;;;;6214591;22;20373;-94
2023/05/06 05:29:53;;;;;;;84.40;49.30;;;11.40;99.90;;;;;;6217600;22;20368;-93
2023/05/06 05:32:44;;;;;;;93.03;51.90;;;11.40;99.90;;;;;;6215377;22;20371;-94
2023/05/06 05:35:39;;;;;;;73.03;45.03;;;11.40;99.90;;;;;;6216747;22;20373;-93
2023/05/06 05:38:22;;;;;;;88.28;50.53;;;11.50;99.90;;;;;;6213378;22;20438;-94
2023/05/06 05:41:59;;;;;;;;;;;;;;;;;;;;;
2023/05/06 05:44:34;;;;;;;75.95;44.85;;;11.70;99.90;;;;;;6239024;22;20764;-94
2023/05/06 05:47:39;;;;;;;;;;;;;;;;;;;;;
2023/05/06 05:50:25;;;;;;;76.93;46.22;;;11.60;99.90;;;;;;6261882;22;20425;-94
2023/05/06 05:52:51;;;;;;;70.20;40.90;;;11.50;99.90;;;;;;6215563;22;20411;-94
2023/05/06 06:18:11;;;;;;;43.53;28.15;;;12.20;99.90;;;;;;6061357;23;20379;-94
2023/05/06 08:05:28;;;;;;;17.02;15.15;;;15.40;99.90;;;;;;6249569;22;20408;-94
2023/05/06 08:14:30;;;;;;;14.65;13.18;;;15.90;99.90;;;;;;6270513;22;20902;-94
2023/05/06 08:19:26;;;;;;;13.80;12.23;;;16.20;99.90;;;;;;6286407;22;21039;-95
2023/05/06 08:22:08;;;;;;;15.40;13.80;;;15.90;99.90;;;;;;6219976;22;20411;-94
2023/05/06 08:24:40;;;;;;;15.35;13.85;;;16.10;99.90;;;;;;6234317;22;20481;-95
2023/05/06 08:27:06;;;;;;;15.00;13.57;;;16.30;99.90;;;;;;6218453;22;20434;-94
2023/05/06 08:29:40;;;;;;;15.90;14.38;;;16.50;99.90;;;;;;6222196;22;20696;-96
2023/05/06 08:32:09;;;;;;;13.07;11.77;;;16.60;99.90;;;;;;6220914;22;20410;-94
2023/05/06 08:34:41;;;;;;;12.60;11.40;;;16.70;99.90;;;;;;6220481;22;20419;-95
2023/05/06 08:37:17;;;;;;;11.63;10.60;;;16.60;99.90;;;;;;6217721;22;20380;-95
2023/05/06 08:39:45;;;;;;;11.23;10.15;;;16.90;99.90;;;;;;6220191;22;20444;-94
2023/05/06 08:42:11;;;;;;;11.82;10.73;;;17.00;99.90;;;;;;6215562;22;20364;-91
2023/05/06 08:44:37;;;;;;;11.80;9.90;;;17.00;99.90;;;;;;6218169;22;20457;-88
2023/05/06 08:47:03;;;;;;;7.10;5.80;;;17.10;99.90;;;;;;6217758;22;20429;-91
2023/05/06 08:49:29;;;;;;;8.40;7.50;;;17.20;99.90;;;;;;6217465;22;21100;-91
2023/05/06 08:51:56;;;;;;;9.00;8.20;;;17.40;99.90;;;;;;6218627;22;20391;-93
2023/05/06 08:54:23;;;;;;;7.95;7.25;;;17.40;99.90;;;;;;6217300;22;20709;-89
2023/05/06 08:56:52;;;;;;;6.90;6.30;;;17.70;99.90;;;;;;6219033;22;20400;-91
2023/05/06 08:59:23;;;;;;;7.75;7.05;;;18.00;99.90;;;;;;6217068;22;20443;-90
2023/05/06 09:01:49;;;;;;;8.73;7.82;;;17.90;99.90;;;;;;6218369;22;20710;-93
2023/05/06 09:04:17;;;;;;;8.43;7.73;;;18.10;99.90;;;;;;6217546;22;20392;-92
2023/05/06 09:06:42;;;;;;;10.13;9.23;;;17.90;99.90;;;;;;6218043;22;20417;-94
2023/05/06 09:09:08;;;;;;;9.93;8.65;;;18.00;99.90;;;;;;6218523;22;20770;-91
2023/05/06 09:11:37;;;;;;;8.95;8.05;;;18.40;99.90;;;;;;6217408;22;20455;-92
2023/05/06 09:14:11;;;;;;;8.75;7.85;;;18.40;99.90;;;;;;6215880;22;20372;-92
2023/05/06 09:16:37;;;;;;;9.20;8.00;;;18.10;99.90;;;;;;6235956;22;20790;-93
2023/05/06 09:19:03;;;;;;;10.02;9.02;;;18.20;99.90;;;;;;6211234;22;20380;-90
2023/05/06 09:21:33;;;;;;;9.50;8.60;;;18.30;99.90;;;;;;6204699;22;20682;-90
2023/05/06 09:24:00;;;;;;;8.75;7.95;;;18.40;99.90;;;;;;6215645;22;20771;-90
2023/05/06 09:26:33;;;;;;;10.20;9.30;;;18.50;99.90;;;;;;6241147;22;20717;-94
2023/05/06 09:29:00;;;;;;;9.80;8.80;;;18.70;99.90;;;;;;6187678;22;20535;-91
2023/05/06 09:31:27;;;;;;;9.47;8.57;;;18.90;99.90;;;;;;6205976;22;20368;-89
2023/05/06 09:33:55;;;;;;;10.25;9.20;;;19.20;99.90;;;;;;6214602;22;20426;-92
2023/05/06 09:36:22;;;;;;;10.55;9.52;;;19.00;99.90;;;;;;6217069;22;20375;-90
2023/05/06 09:38:48;;;;;;;9.75;8.82;;;19.10;99.90;;;;;;6215198;22;20406;-94
2023/05/06 09:41:15;;;;;;;11.38;10.27;;;19.30;99.90;;;;;;6215758;22;20376;-93
2023/05/06 09:43:46;;;;;;;11.10;10.10;;;19.50;99.90;;;;;;6215204;22;20403;-89
2023/05/06 09:46:12;;;;;;;11.60;10.50;;;19.60;99.90;;;;;;6210776;22;20868;-88
2023/05/06 09:48:39;;;;;;;12.30;11.20;;;19.60;99.90;;;;;;6215807;22;20452;-89
2023/05/06 09:51:06;;;;;;;11.80;10.70;;;20.00;99.90;;;;;;6213071;22;20448;-94
2023/05/06 09:53:36;;;;;;;12.10;11.00;;;19.60;99.90;;;;;;6209974;22;20915;-89
2023/05/06 09:56:03;;;;;;;12.02;10.93;;;19.90;99.90;;;;;;6228959;22;20379;-92
2023/05/06 09:58:30;;;;;;;11.40;10.20;;;20.10;99.90;;;;;;6216471;22;20398;-89
2023/05/06 10:00:56;;;;;;;10.75;9.75;;;20.60;99.90;;;;;;6213868;22;20407;-89
2023/05/06 10:03:23;;;;;;;11.25;10.23;;;20.90;99.90;;;;;;6237678;22;20706;-89
2023/05/06 10:05:50;;;;;;;10.13;9.23;;;20.90;99.90;;;;;;6204759;22;21258;-89
2023/05/06 10:08:17;;;;;;;10.95;9.90;;;21.10;99.90;;;;;;6239585;22;20372;-89
2023/05/06 10:10:46;;;;;;;11.10;9.98;;;21.30;99.90;;;;;;6241399;22;20364;-88
2023/05/06 10:13:15;;;;;;;11.48;10.38;;;21.40;99.90;;;;;;6214428;22;20368;-94
2023/05/06 10:15:46;;;;;;;12.20;11.00;;;21.40;98.00;;;;;;6215941;22;20372;-92
2023/05/06 10:18:15;;;;;;;12.60;11.30;;;21.20;99.90;;;;;;6214686;22;20372;-88
2023/05/06 10:20:42;;;;;;;12.90;11.70;;;21.00;99.70;;;;;;6240678;22;20371;-87
2023/05/06 10:23:19;;;;;;;14.05;12.75;;;20.80;99.90;;;;;;6266845;22;20435;-87
2023/05/06 10:25:46;;;;;;;13.48;12.27;;;20.50;99.90;;;;;;6214357;22;20387;-88
2023/05/06 10:28:12;;;;;;;14.17;12.77;;;20.50;99.90;;;;;;6240368;22;20365;-88
2023/05/06 10:30:39;;;;;;;13.00;11.70;;;20.10;99.90;;;;;;6263784;22;21355;-86
2023/05/06 10:33:10;;;;;;;13.57;12.15;;;19.90;99.90;;;;;;6268211;22;20352;-87
2023/05/06 10:35:49;;;;;;;12.68;11.48;;;19.60;99.90;;;;;;6265508;22;20938;-87
2023/05/06 10:38:28;;;;;;;12.73;11.52;;;19.50;99.90;;;;;;6213224;22;20380;-87
2023/05/06 10:40:55;;;;;;;12.30;11.10;;;19.40;99.90;;;;;;6267036;22;20682;-87
2023/05/06 10:43:32;;;;;;;13.73;12.27;;;19.20;99.90;;;;;;6238671;22;20373;-88
2023/05/06 10:46:02;;;;;;;11.82;10.63;;;19.30;99.90;;;;;;6239084;22;20423;-90
2023/05/06 10:48:28;;;;;;;11.88;10.77;;;20.00;99.90;;;;;;6213960;22;20377;-89
2023/05/06 10:51:16;;;;;;;10.82;9.73;;;20.10;99.90;;;;;;6268559;22;20375;-89
2023/05/06 10:54:05;;;;;;;10.23;9.30;;;20.80;99.90;;;;;;6240751;22;20375;-89
2023/05/06 10:56:32;;;;;;;9.98;8.98;;;21.70;99.90;;;;;;6213881;22;20391;-90
2023/05/06 10:59:07;;;;;;;10.37;9.17;;;22.20;99.90;;;;;;6214892;22;20377;-89
2023/05/06 11:01:54;;;;;;;8.70;7.90;;;22.60;99.90;;;;;;6240066;22;20383;-89
2023/05/06 11:04:21;;;;;;;8.20;7.50;;;22.70;84.60;;;;;;6241356;22;20389;-88
2023/05/06 11:06:49;;;;;;;9.03;7.80;;;22.50;88.60;;;;;;6240083;22;20375;-87
2023/05/06 11:09:26;;;;;;;9.73;8.73;;;22.20;88.30;;;;;;6217299;22;20883;-94
2023/05/06 11:12:03;;;;;;;9.93;9.02;;;22.10;91.00;;;;;;6216638;22;20376;-89
2023/05/06 11:14:36;;;;;;;8.80;8.00;;;21.50;92.20;;;;;;6267936;22;20391;-93
2023/05/06 11:17:07;;;;;;;8.52;7.72;;;21.20;93.50;;;;;;6241178;22;20374;-89
2023/05/06 11:19:35;;;;;;;8.80;8.00;;;21.00;94.20;;;;;;6231144;22;20390;-88
2023/05/06 11:22:02;;;;;;;8.93;8.13;;;20.90;99.60;;;;;;6240140;22;20675;-91
2023/05/06 11:24:30;;;;;;;9.00;8.20;;;20.70;99.90;;;;;;6240658;22;20399;-89
2023/05/06 11:26:58;;;;;;;10.60;9.43;;;20.40;98.60;;;;;;6214882;22;20379;-89
2023/05/06 11:29:24;;;;;;;11.15;10.05;;;20.20;99.90;;;;;;6231984;22;20836;-88
2023/05/06 11:31:52;;;;;;;11.43;10.30;;;20.30;99.90;;;;;;6150212;23;20843;-91
2023/05/06 11:34:24;;;;;;;12.50;10.65;;;19.90;99.90;;;;;;6179162;23;20463;-88
2023/05/06 11:37:05;;;;;;;12.30;11.10;;;19.80;99.90;;;;;;6179911;23;21279;-90
2023/05/06 11:39:32;;;;;;;14.05;11.63;;;19.50;99.90;;;;;;6158007;23;20801;-88
2023/05/06 11:42:03;;;;;;;12.48;11.27;;;19.40;99.90;;;;;;6155795;23;20375;-89
2023/05/06 11:44:34;;;;;;;11.98;10.77;;;19.10;99.90;;;;;;6156667;23;20453;-89
2023/05/06 11:47:05;;;;;;;9.77;8.73;;;19.00;99.90;;;;;;6182869;23;20986;-89
2023/05/06 11:49:39;;;;;;;8.15;7.03;;;19.00;99.90;;;;;;6180545;23;20386;-90
2023/05/06 11:52:06;;;;;;;9.02;7.53;;;18.90;99.90;;;;;;6182438;23;20379;-92
2023/05/06 11:54:38;;;;;;;7.30;6.57;;;19.10;99.90;;;;;;6181444;23;20367;-87
2023/05/06 11:57:04;;;;;;;7.15;6.35;;;19.10;99.90;;;;;;6156750;23;20813;-89
2023/05/06 11:59:36;;;;;;;7.70;6.90;;;19.10;99.90;;;;;;6182039;23;20403;-94
2023/05/06 12:02:04;;;;;;;7.50;6.70;;;19.10;99.90;;;;;;6155988;23;20404;-89
2023/05/06 12:04:41;;;;;;;8.77;7.80;;;19.40;99.90;;;;;;6181333;23;20395;-87
2023/05/06 12:07:09;;;;;;;9.88;7.85;;;19.00;99.90;;;;;;6180371;23;20383;-89
2023/05/06 12:09:38;;;;;;;10.40;9.40;;;18.90;99.90;;;;;;6157259;23;20398;-91
2023/05/06 12:12:04;;;;;;;13.05;11.73;;;18.90;99.90;;;;;;6179830;23;20367;-91
2023/05/06 12:14:33;;;;;;;12.88;11.57;;;18.90;99.90;;;;;;6156427;23;20438;-89
2023/05/06 12:16:59;;;;;;;12.25;10.98;;;18.90;99.90;;;;;;6181693;23;20403;-91
2023/05/06 12:19:25;;;;;;;12.77;11.48;;;18.80;99.90;;;;;;6155512;23;20412;-88
2023/05/06 12:21:54;;;;;;;10.50;9.50;;;18.70;99.90;;;;;;6157220;23;20828;-95
2023/05/06 12:24:38;;;;;;;10.95;9.85;;;18.60;99.90;;;;;;6160798;23;20455;-94
2023/05/06 12:27:04;;;;;;;10.70;9.50;;;18.50;99.90;;;;;;6161589;23;20437;-94
2023/05/06 12:29:31;;;;;;;9.77;8.77;;;18.80;99.90;;;;;;6157095;23;20462;-92
2023/05/06 12:32:08;;;;;;;8.50;6.85;;;18.40;99.90;;;;;;6159645;23;20704;-92
2023/05/06 12:34:40;;;;;;;8.77;7.03;;;18.40;99.90;;;;;;6160138;23;20386;-92
2023/05/06 12:37:09;;;;;;;8.38;7.45;;;18.50;99.90;;;;;;6158137;23;20376;-91
2023/05/06 12:39:37;;;;;;;7.60;6.80;;;18.50;99.90;;;;;;6161017;23;20454;-94
2023/05/06 12:42:03;;;;;;;8.05;6.50;;;18.30;99.90;;;;;;6158376;23;20414;-93
2023/05/06 12:44:33;;;;;;;6.80;5.68;;;18.50;99.90;;;;;;6159275;23;20406;-94
2023/05/06 12:47:07;;;;;;;6.28;5.65;;;18.40;99.90;;;;;;6157017;23;20386;-91
2023/05/06 12:49:59;;;;;;;7.07;5.55;;;18.90;99.90;;;;;;6158816;23;20371;-95
2023/05/06 12:52:27;;;;;;;8.53;5.50;;;18.90;99.90;;;;;;6162765;23;20380;-94
2023/05/06 12:55:00;;;;;;;6.80;6.05;;;19.10;99.90;;;;;;6166279;23;20488;-94
2023/05/06 12:57:26;;;;;;;7.53;6.57;;;19.70;99.90;;;;;;6161268;23;20384;-94
2023/05/06 12:59:52;;;;;;;6.72;6.03;;;19.80;99.90;;;;;;6158277;23;20372;-95
2023/05/06 13:02:20;;;;;;;6.10;4.90;;;20.00;99.90;;;;;;6163454;23;20454;-95
2023/05/06 13:04:46;;;;;;;5.55;4.63;;;20.30;99.90;;;;;;6159004;23;20395;-93
2023/05/06 13:07:23;;;;;;;4.95;4.03;;;20.40;99.90;;;;;;6160158;23;20379;-95
2023/05/06 13:09:49;;;;;;;4.28;3.10;;;20.80;99.90;;;;;;6131789;23;20394;-95
2023/05/06 13:12:15;;;;;;;3.53;2.50;;;21.20;99.90;;;;;;6159047;23;20371;-92
2023/05/06 13:14:41;;;;;;;4.20;1.95;;;21.90;99.60;;;;;;6157496;23;20382;-94
2023/05/06 13:17:10;;;;;;;3.08;1.45;;;22.30;91.60;;;;;;6159231;23;20367;-95
2023/05/06 13:19:36;;;;;;;2.88;1.15;;;22.60;94.80;;;;;;6159269;23;20505;-94
2023/05/06 13:22:04;;;;;;;2.50;1.10;;;23.40;91.60;;;;;;6160708;23;20372;-94
2023/05/06 13:24:31;;;;;;;4.00;1.52;;;23.60;66.00;;;;;;6163246;23;20397;-96
2023/05/06 13:26:59;;;;;;;2.90;1.20;;;24.10;83.20;;;;;;6161312;23;20364;-94
2023/05/06 13:29:25;;;;;;;2.55;1.00;;;24.70;68.80;;;;;;6161476;23;20383;-95
2023/05/06 13:31:51;;;;;;;2.70;1.00;;;25.30;65.50;;;;;;6159120;23;20368;-92
2023/05/06 13:34:17;;;;;;;2.57;0.90;;;25.60;59.20;;;;;;6158785;23;20403;-93
2023/05/06 13:36:43;;;;;;;2.72;0.88;;;26.00;57.90;;;;;;6155621;23;20364;-93
2023/05/06 13:39:08;;;;;;;2.70;0.60;;;26.40;59.50;;;;;;6158461;23;20507;-93
2023/05/06 13:41:37;;;;;;;2.67;0.73;;;26.60;51.60;;;;;;6157518;23;20375;-95
2023/05/06 13:44:03;;;;;;;2.72;0.70;;;26.50;50.70;;;;;;6154212;23;20461;-95
2023/05/06 13:46:30;;;;;;;1.65;0.77;;;26.60;55.40;;;;;;6157158;23;20481;-93
2023/05/06 13:48:55;;;;;;;2.10;0.80;;;26.70;52.30;;;;;;6158580;23;20702;-95
2023/05/06 13:51:31;;;;;;;2.30;0.90;;;26.90;49.80;;;;;;6158888;23;20367;-95
2023/05/06 13:53:59;;;;;;;2.13;0.73;;;26.90;52.50;;;;;;6158315;23;20376;-92
2023/05/06 13:56:25;;;;;;;2.20;1.00;;;27.10;50.70;;;;;;6159349;23;20475;-93
2023/05/06 13:58:52;;;;;;;2.22;0.77;;;27.30;53.20;;;;;;6156440;23;20375;-90
2023/05/06 14:01:19;;;;;;;2.35;0.90;;;27.70;51.60;;;;;;6182625;23;20460;-86
2023/05/06 14:03:45;;;;;;;1.60;0.82;;;27.80;47.80;;;;;;6180519;23;20482;-93
2023/05/06 14:06:10;;;;;;;2.07;1.00;;;27.70;49.30;;;;;;6182804;23;20518;-92
2023/05/06 14:08:36;;;;;;;2.20;0.98;;;27.90;48.80;;;;;;6156996;23;20920;-89
2023/05/06 14:11:02;;;;;;;1.83;0.90;;;28.30;50.20;;;;;;6182069;23;20458;-89
2023/05/06 14:13:30;;;;;;;2.22;0.90;;;28.60;49.90;;;;;;6157970;23;20752;-92
2023/05/06 14:15:56;;;;;;;1.75;0.80;;;28.70;48.90;;;;;;6181085;23;20375;-92
2023/05/06 14:18:22;;;;;;;1.80;0.60;;;28.70;46.60;;;;;;6182453;23;20383;-91
2023/05/06 14:20:48;;;;;;;1.98;1.33;;;28.80;46.60;;;;;;6180488;23;20879;-90
2023/05/06 14:23:14;;;;;;;2.07;1.10;;;28.60;48.30;;;;;;6182355;23;20450;-90
2023/05/06 14:25:39;;;;;;;3.22;1.63;;;28.20;46.70;;;;;;6180610;23;20379;-91
2023/05/06 14:28:05;;;;;;;2.30;1.43;;;27.90;49.70;;;;;;6182303;23;20458;-92
2023/05/06 14:30:32;;;;;;;2.88;1.80;;;27.60;48.50;;;;;;6182091;23;20463;-92
2023/05/06 14:32:58;;;;;;;2.88;1.70;;;27.10;49.80;;;;;;6156147;23;20375;-92
2023/05/06 14:35:24;;;;;;;2.40;1.60;;;26.70;50.40;;;;;;6156946;23;20418;-89
2023/05/06 14:37:50;;;;;;;1.93;0.90;;;26.30;51.50;;;;;;6180438;23;20387;-92
2023/05/06 14:40:16;;;;;;;2.03;1.10;;;25.90;50.90;;;;;;6157993;23;20378;-91
2023/05/06 14:42:41;;;;;;;2.47;1.00;;;25.40;50.80;;;;;;6180413;23;20371;-92
2023/05/06 14:45:08;;;;;;;2.22;1.20;;;24.80;50.80;;;;;;6157454;23;20695;-94
2023/05/06 14:47:33;;;;;;;2.78;1.50;;;24.40;52.40;;;;;;6132071;23;20371;-88
2023/05/06 14:49:59;;;;;;;1.93;1.10;;;23.90;52.90;;;;;;6181728;23;20390;-91
2023/05/06 14:52:25;;;;;;;2.38;1.20;;;23.50;54.80;;;;;;6182279;23;20386;-90
2023/05/06 14:54:50;;;;;;;2.30;0.93;;;23.40;55.40;;;;;;6156326;23;20840;-93
2023/05/06 14:57:16;;;;;;;1.70;0.70;;;22.80;54.50;;;;;;6157314;23;20379;-91
2023/05/06 14:59:42;;;;;;;2.37;0.57;;;22.60;59.10;;;;;;6155752;23;20383;-93
2023/05/06 15:02:08;;;;;;;2.08;0.50;;;22.70;57.90;;;;;;6160241;23;20399;-93
2023/05/06 15:04:35;;;;;;;1.60;0.30;;;22.20;60.50;;;;;;6156961;23;20427;-94
2023/05/06 15:07:01;;;;;;;0.93;0.30;;;22.10;65.90;;;;;;6184145;23;20368;-94
2023/05/06 15:09:27;;;;;;;2.33;0.70;;;21.90;60.50;;;;;;6184107;23;20685;-90
2023/05/06 15:11:53;;;;;;;1.63;0.65;;;21.70;67.10;;;;;;6183043;23;20367;-93
2023/05/06 15:14:19;;;;;;;1.70;0.90;;;21.40;64.20;;;;;;6180135;23;20708;-92